createdAt,value
2019-01-25T00:02:42.606Z,76.69
2019-01-25T00:07:46.070Z,75.93
2019-01-25T00:12:49.520Z,78.00
2019-01-25T00:17:52.981Z,78.12
2019-01-25T00:22:56.440Z,77.27
2019-01-25T00:27:59.899Z,76.90
2019-01-25T00:33:03.379Z,77.51
2019-01-25T00:38:06.829Z,77.95
2019-01-25T00:43:10.632Z,78.31
2019-01-25T00:48:14.080Z,75.84
2019-01-25T00:53:17.535Z,76.95
2019-01-25T00:58:20.992Z,77.15
2019-01-25T01:03:24.453Z,77.78
2019-01-25T01:08:27.918Z,76.80
2019-01-25T01:13:31.399Z,77.59
2019-01-25T01:18:34.862Z,74.31
2019-01-25T01:23:38.341Z,74.78
2019-01-25T01:28:41.814Z,76.87
2019-01-25T01:33:45.272Z,76.83
2019-01-25T01:38:48.765Z,75.26
2019-01-25T01:43:52.193Z,77.09
2019-01-25T01:48:55.648Z,77.11
2019-01-25T01:53:59.098Z,76.64
2019-01-25T01:59:02.571Z,74.84
2019-01-25T02:04:06.175Z,76.27
2019-01-25T02:09:09.875Z,75.48
2019-01-25T02:14:13.331Z,77.08
2019-01-25T02:19:16.802Z,77.18
2019-01-25T02:24:20.262Z,74.89
2019-01-25T02:29:23.702Z,75.05
2019-01-25T02:34:27.154Z,76.11
2019-01-25T02:39:30.685Z,75.83
2019-01-25T02:44:34.147Z,76.70
2019-01-25T02:49:37.650Z,76.97
2019-01-25T02:54:41.296Z,74.99
2019-01-25T02:59:44.754Z,75.15
2019-01-25T03:04:48.195Z,74.76
2019-01-25T03:09:51.645Z,75.92
2019-01-25T03:14:55.113Z,76.14
2019-01-25T03:19:58.569Z,75.04
2019-01-25T03:25:02.032Z,76.76
2019-01-25T03:30:15.126Z,74.70
2019-01-25T03:35:21.129Z,75.54
2019-01-25T03:40:26.738Z,74.64
2019-01-25T03:45:30.177Z,75.96
2019-01-25T03:50:33.697Z,76.02
2019-01-25T03:55:37.142Z,76.68
2019-01-25T04:00:40.621Z,73.90
2019-01-25T04:05:44.083Z,75.27
2019-01-25T04:10:47.613Z,74.92
2019-01-25T04:15:51.075Z,77.09
2019-01-25T04:20:54.602Z,76.64
2019-01-25T04:25:58.057Z,76.60
2019-01-25T04:31:01.494Z,75.79
2019-01-25T04:36:05.286Z,76.06
2019-01-25T04:41:11.855Z,75.68
2019-01-25T04:46:13.930Z,75.30
2019-01-25T04:51:17.386Z,74.57
2019-01-25T04:56:20.910Z,76.19
2019-01-25T05:01:24.362Z,75.50
2019-01-25T05:06:27.795Z,75.33
2019-01-25T05:11:31.216Z,74.22
2019-01-25T05:16:34.660Z,75.10
2019-01-25T05:21:38.088Z,75.65
2019-01-25T05:26:41.524Z,73.94
2019-01-25T05:31:45.035Z,72.81
2019-01-25T05:36:48.465Z,73.68
2019-01-25T05:41:52.855Z,73.27
2019-01-25T05:46:56.281Z,73.91
2019-01-25T05:51:59.725Z,73.70
2019-01-25T05:57:03.185Z,73.53
2019-01-25T06:02:06.737Z,72.90
2019-01-25T06:07:10.191Z,73.32
2019-01-25T06:12:13.631Z,73.44
2019-01-25T06:17:17.096Z,73.73
2019-01-25T06:22:20.528Z,72.21
2019-01-25T06:27:23.960Z,70.51
2019-01-25T06:32:27.392Z,70.71
2019-01-25T06:37:30.826Z,72.74
2019-01-25T06:42:34.257Z,72.34
2019-01-25T06:47:37.744Z,70.91
2019-01-25T06:52:41.164Z,71.82
2019-01-25T06:57:46.242Z,73.30
2019-01-25T07:02:49.670Z,72.87
2019-01-25T07:07:53.112Z,73.76
2019-01-25T07:12:56.548Z,71.53
2019-01-25T07:18:00.042Z,73.65
2019-01-25T07:23:03.493Z,73.27
2019-01-25T07:28:06.930Z,73.34
2019-01-25T07:33:10.373Z,74.59
2019-01-25T07:38:13.793Z,74.75
2019-01-25T07:43:17.271Z,75.58
2019-01-25T07:48:20.807Z,76.99
2019-01-25T07:53:24.217Z,77.18
2019-01-25T07:58:27.638Z,78.03
2019-01-25T08:03:31.098Z,78.05
2019-01-25T08:08:34.539Z,78.94
2019-01-25T08:13:37.960Z,79.76
2019-01-25T08:18:41.390Z,82.30
2019-01-25T08:23:44.887Z,82.43
2019-01-25T08:28:48.336Z,83.19
2019-01-25T08:33:51.888Z,85.68
2019-01-25T08:38:55.274Z,85.53
2019-01-25T08:43:58.708Z,85.70
2019-01-25T08:49:02.128Z,85.26
2019-01-25T08:54:05.557Z,86.38
2019-01-25T08:59:09.002Z,86.80
2019-01-25T09:04:12.438Z,86.02
2019-01-25T09:09:15.847Z,85.01
2019-01-25T09:14:19.295Z,85.11
2019-01-25T09:19:22.736Z,85.32
2019-01-25T09:24:26.159Z,86.38
2019-01-25T09:29:29.597Z,86.17
2019-01-25T09:34:33.021Z,84.96
2019-01-25T09:39:36.620Z,84.61
2019-01-25T09:44:40.097Z,84.20
2019-01-25T09:49:43.501Z,84.20
2019-01-25T09:54:46.945Z,84.54
2019-01-25T09:59:50.396Z,84.40
2019-01-25T10:04:54.076Z,84.47
2019-01-25T10:09:57.691Z,85.83
2019-01-25T10:15:01.169Z,85.43
2019-01-25T10:20:07.815Z,85.34
2019-01-25T10:25:11.609Z,85.35
2019-01-25T10:30:29.133Z,85.16
2019-01-25T10:35:32.651Z,85.35
2019-01-25T10:40:36.095Z,84.26
2019-01-25T10:45:42.252Z,83.92
2019-01-25T10:50:45.690Z,84.61
2019-01-25T10:55:49.184Z,84.49
2019-01-25T11:00:52.621Z,84.04
2019-01-25T11:05:56.061Z,83.76
2019-01-25T11:10:59.517Z,85.31
2019-01-25T11:16:02.996Z,84.06
2019-01-25T11:21:06.425Z,83.19
2019-01-25T11:26:09.845Z,82.23
2019-01-25T11:31:13.283Z,82.30
2019-01-25T11:36:16.717Z,82.08
2019-01-25T11:41:20.145Z,82.66
2019-01-25T11:46:23.628Z,83.38
2019-01-25T11:51:27.072Z,82.66
2019-01-25T11:56:30.717Z,83.35
2019-01-25T12:01:34.136Z,83.00
2019-01-25T12:06:37.634Z,84.15
2019-01-25T12:11:41.067Z,84.50
2019-01-25T12:16:44.487Z,85.00
2019-01-25T12:21:47.927Z,85.45
2019-01-25T12:26:51.365Z,85.43
2019-01-25T12:31:54.777Z,85.87
2019-01-25T12:36:58.214Z,88.13
2019-01-25T12:42:01.656Z,87.99
2019-01-25T12:47:05.157Z,87.36
2019-01-25T12:52:08.726Z,87.53
2019-01-25T12:57:12.204Z,88.20
2019-01-25T13:02:15.970Z,89.82
2019-01-25T13:07:19.390Z,91.26
2019-01-25T13:12:25.165Z,91.62
2019-01-25T13:17:28.088Z,93.11
2019-01-25T13:22:32.628Z,92.04
2019-01-25T13:27:36.127Z,89.93
2019-01-25T13:32:39.562Z,90.05
2019-01-25T13:37:43.278Z,91.29
2019-01-25T13:42:46.768Z,92.87
2019-01-25T13:47:50.631Z,93.47
2019-01-25T13:52:54.051Z,93.49
2019-01-25T13:57:57.472Z,94.52
2019-01-25T14:03:00.886Z,94.47
2019-01-25T14:08:04.639Z,94.68
2019-01-25T14:13:08.070Z,95.03
2019-01-25T14:18:11.501Z,95.52
2019-01-25T14:23:14.922Z,93.67
2019-01-25T14:28:18.429Z,95.75
2019-01-25T14:33:21.844Z,93.99
2019-01-25T14:38:25.278Z,93.75
2019-01-25T14:43:28.739Z,93.84
2019-01-25T14:48:32.163Z,96.20
2019-01-25T14:53:35.574Z,98.44
2019-01-25T14:58:39.004Z,97.57
2019-01-25T15:03:42.447Z,96.79
2019-01-25T15:08:45.866Z,97.24
2019-01-25T15:13:49.899Z,99.10
2019-01-25T15:18:53.417Z,98.62
2019-01-25T15:23:56.847Z,98.95
2019-01-25T15:29:00.277Z,99.65
2019-01-25T15:34:03.699Z,100.00
2019-01-25T15:39:09.779Z,100.00
2019-01-25T15:44:13.209Z,100.00
2019-01-25T15:49:16.706Z,100.00
2019-01-25T15:54:20.135Z,100.00
2019-01-25T15:59:23.589Z,100.00
2019-01-25T16:04:34.589Z,100.00
2019-01-25T16:09:32.227Z,100.00
2019-01-25T16:14:35.732Z,100.00
2019-01-25T16:19:39.191Z,100.00
2019-01-25T16:24:42.623Z,100.00
2019-01-25T16:29:46.310Z,100.00
2019-01-25T16:34:49.740Z,100.00
2019-01-25T16:39:53.162Z,100.00
2019-01-25T16:44:56.610Z,100.00
2019-01-25T16:50:00.249Z,100.00
2019-01-25T16:55:07.311Z,100.00
2019-01-25T17:00:22.628Z,100.00
2019-01-25T17:05:26.402Z,100.00
2019-01-25T17:10:30.091Z,100.00
2019-01-25T17:15:33.585Z,100.00
2019-01-25T17:20:37.098Z,100.00
2019-01-25T17:25:40.591Z,100.00
2019-01-25T17:30:44.059Z,100.00
2019-01-25T17:35:47.492Z,100.00
2019-01-25T17:40:50.928Z,100.00
2019-01-25T17:45:54.354Z,100.00
2019-01-25T17:50:57.786Z,100.00
2019-01-25T17:56:01.214Z,100.00
2019-01-25T18:01:04.644Z,100.00
2019-01-25T18:06:08.079Z,100.00
2019-01-25T18:11:11.511Z,100.00
2019-01-25T18:16:14.955Z,100.00
2019-01-25T18:21:18.382Z,100.00
2019-01-25T18:26:21.906Z,100.00
2019-01-25T18:31:27.478Z,100.00
2019-01-25T18:36:30.910Z,100.00
2019-01-25T18:41:35.388Z,100.00
2019-01-25T18:46:38.942Z,100.00
2019-01-25T18:51:42.389Z,100.00
2019-01-25T18:56:46.348Z,100.00
2019-01-25T19:01:49.860Z,100.00
2019-01-25T19:06:53.313Z,100.00
2019-01-25T19:11:56.769Z,100.00
2019-01-25T19:17:00.201Z,100.00
2019-01-25T19:22:03.666Z,100.00
2019-01-25T19:27:07.089Z,100.00
2019-01-25T19:32:10.581Z,100.00
2019-01-25T19:37:14.002Z,100.00
2019-01-25T19:42:17.422Z,100.00
2019-01-25T19:47:20.860Z,100.00
2019-01-25T19:52:24.278Z,100.00
2019-01-25T19:57:27.715Z,100.00
2019-01-25T20:02:31.165Z,100.00
2019-01-25T20:07:34.866Z,100.00
2019-01-25T20:12:38.291Z,100.00
2019-01-25T20:17:41.738Z,100.00
2019-01-25T20:22:45.235Z,100.00
2019-01-25T20:27:48.659Z,100.00
2019-01-25T20:32:52.234Z,100.00
2019-01-25T20:37:55.753Z,100.00
2019-01-25T20:42:59.207Z,100.00
2019-01-25T20:48:02.789Z,100.00
2019-01-25T20:53:08.066Z,100.00
2019-01-25T20:58:11.650Z,100.00
2019-01-25T21:03:16.037Z,100.00
2019-01-25T21:08:19.465Z,100.00
2019-01-25T21:13:22.881Z,100.00
2019-01-25T21:18:26.354Z,100.00
2019-01-25T21:23:29.773Z,100.00
2019-01-25T21:28:33.201Z,100.00
2019-01-25T21:33:36.665Z,100.00
2019-01-25T21:38:40.115Z,100.00
2019-01-25T21:43:43.584Z,100.00
2019-01-25T21:48:47.087Z,100.00
2019-01-25T21:53:50.541Z,100.00
2019-01-25T21:58:53.983Z,100.00
2019-01-25T22:03:57.428Z,100.00
2019-01-25T22:09:00.866Z,100.00
2019-01-25T22:14:04.730Z,100.00
2019-01-25T22:19:08.230Z,100.00
2019-01-25T22:24:11.756Z,100.00
2019-01-25T22:29:15.248Z,99.88
2019-01-25T22:34:18.664Z,99.66
2019-01-25T22:39:22.099Z,98.54
2019-01-25T22:44:25.531Z,97.48
2019-01-25T22:49:28.944Z,97.44
2019-01-25T22:54:32.466Z,95.45
2019-01-25T22:59:35.908Z,95.99
2019-01-25T23:04:42.411Z,96.73
2019-01-25T23:09:46.007Z,96.07
2019-01-25T23:14:49.501Z,95.65
2019-01-25T23:19:53.094Z,96.74
2019-01-25T23:24:56.513Z,94.30
2019-01-25T23:30:00.133Z,94.39
2019-01-25T23:35:04.180Z,94.70
2019-01-25T23:40:09.254Z,94.85
2019-01-25T23:45:12.864Z,94.08
2019-01-25T23:50:16.444Z,93.43
2019-01-25T23:55:19.906Z,92.21
